Thursday, March 23, 2017, 12:21 AM EDT

KDYL, Doylestown Airport

Location: Doylestown, PA, United States Lat: 40.333
Local Time: 12:21 AM EDT ( 4:21 GMT) Lon: -75.117
Time Zone: US/Eastern Elev: 393 ft

Show me the last for .
Show Decoded

2017-03-22 23:54 METAR KDYL 230354Z AUTO VRB05KT 10SM CLR M08/M17 A3047 RMK AO2 SLP329 T10781172
                 =
2017-03-22 22:54 METAR KDYL 230254Z AUTO 35005KT 10SM CLR M07/M18 A3045 RMK AO2 SLP324 T10721178
                 53026 =
2017-03-22 21:54 METAR KDYL 230154Z AUTO 33011G18KT 10SM CLR M07/M18 A3043 RMK AO2 SLP314
                 T10671183 =
2017-03-22 20:54 METAR KDYL 230054Z AUTO 33009G19KT 10SM CLR M06/M19 A3040 RMK AO2 SLP306
                 T10611189 =
2017-03-22 19:54 METAR KDYL 222354Z AUTO 34010G20KT 10SM CLR M06/M18 A3038 RMK AO2 SLP296
                 T10561183 11011 21056 53034 =
2017-03-22 18:54 METAR KDYL 222254Z AUTO 33011G26KT 10SM CLR M04/M19 A3034 RMK AO2 PK WND
                 33032/2212 SLP281 T10441189 =
2017-03-22 17:54 METAR KDYL 222154Z AUTO 34013G27KT 10SM CLR M03/M18 A3031 RMK AO2 PK WND
                 01029/2131 SLP271 T10281178 =
2017-03-22 16:54 METAR KDYL 222054Z AUTO 32013G28KT 10SM CLR M02/M16 A3028 RMK AO2 PK WND
                 33031/2033 SLP260 T10221161 53016 =
2017-03-22 15:54 METAR KDYL 221954Z AUTO 32017G26KT 10SM CLR M02/M16 A3024 RMK AO2 PK WND
                 33029/1935 SLP249 T10221156 =
2017-03-22 14:54 METAR KDYL 221854Z AUTO 33012G27KT 10SM CLR M02/M13 A3023 RMK AO2 PK WND
                 35033/1823 SLP244 T10221133 =
2017-03-22 13:54 METAR KDYL 221754Z AUTO 35015G27KT 10SM CLR M01/M13 A3023 RMK AO2 PK WND
                 33038/1655 SLP243 T10111133 11011 21033 51027 =
2017-03-22 12:54 METAR KDYL 221654Z AUTO 33024G39KT 10SM CLR M02/M14 A3021 RMK AO2 PK WND
                 33039/1647 SLP236 T10171144 =
2017-03-22 11:54 METAR KDYL 221554Z AUTO 33014G30KT 10SM FEW055 M02/M13 A3018 RMK AO2 PK WND
                 32030/1549 SLP228 T10171128 =
2017-03-22 10:54 METAR KDYL 221454Z AUTO 32015G27KT 10SM FEW050 M02/M10 A3015 RMK AO2 PK WND
                 35029/1427 SLP215 T10171100 51037 =
2017-03-22 09:54 METAR KDYL 221354Z AUTO 35015G25KT 10SM FEW049 M02/M11 A3012 RMK AO2 PK WND
                 32026/1323 SLP207 T10221106 =
2017-03-22 08:54 METAR KDYL 221254Z AUTO 34017G24KT 10SM FEW042 M03/M08 A3010 RMK AO2 PK WND
                 34026/1205 SLP199 T10281078 =
2017-03-22 07:54 METAR KDYL 221154Z AUTO 33011G18KT 10SM FEW048 M02/ A3004 RMK AO2 SLP178 T1017
                 10028 21017 51042 $ =
2017-03-22 06:54 METAR KDYL 221054Z AUTO 31009KT 10SM CLR M01/ A3000 RMK AO2 SLP165 T1006 $ =
2017-03-22 05:54 METAR KDYL 220954Z AUTO 33011G18KT 10SM CLR 00/ A2996 RMK AO2 SLP152 T0000 $ =
2017-03-22 04:54 METAR KDYL 220854Z AUTO 34006KT 10SM CLR 01/ A2991 RMK AO2 SLP133 T0011 53012 $
                 =
2017-03-22 03:54 METAR KDYL 220754Z AUTO 33004KT 10SM CLR 01/ A2988 RMK AO2 SLP123 T0011 $ =
2017-03-22 02:54 METAR KDYL 220654Z AUTO 33004KT 10SM CLR 02/ A2988 RMK AO2 SLP123 T0017 $ =
2017-03-22 01:54 METAR KDYL 220554Z AUTO 31004KT 10SM CLR 03/ A2988 RMK AO2 SLP121 T0028 10067
                 20028 51007 $ =
2017-03-22 00:54 METAR KDYL 220454Z AUTO 33006KT 10SM CLR 03/ A2987 RMK AO2 SLP121 T0033
                 401001011 $ =

Support USWX by starting your Amazon purchase here.